sensor_id;sensor_type;location;lat;lon;timestamp;pressure;altitude;pressure_sealevel;temperature
61703;BMP280;47622;47.726;3.298;2023-02-23T00:01:36;98791.59;;;8.02
61703;BMP280;47622;47.726;3.298;2023-02-23T00:04:02;98784.13;;;7.95
61703;BMP280;47622;47.726;3.298;2023-02-23T00:06:29;98788.97;;;8.02
61703;BMP280;47622;47.726;3.298;2023-02-23T00:08:55;98787.50;;;7.95
61703;BMP280;47622;47.726;3.298;2023-02-23T00:11:22;98793.28;;;7.92
61703;BMP280;47622;47.726;3.298;2023-02-23T00:13:49;98795.81;;;7.97
61703;BMP280;47622;47.726;3.298;2023-02-23T00:16:21;98786.84;;;8.04
61703;BMP280;47622;47.726;3.298;2023-02-23T00:18:49;98788.88;;;8.07
61703;BMP280;47622;47.726;3.298;2023-02-23T00:21:24;98780.47;;;8.10
61703;BMP280;47622;47.726;3.298;2023-02-23T00:23:52;98785.31;;;8.16
61703;BMP280;47622;47.726;3.298;2023-02-23T00:26:20;98785.00;;;8.04
61703;BMP280;47622;47.726;3.298;2023-02-23T00:28:47;98784.25;;;8.04
61703;BMP280;47622;47.726;3.298;2023-02-23T00:31:13;98775.44;;;8.13
61703;BMP280;47622;47.726;3.298;2023-02-23T00:33:39;98781.63;;;8.04
61703;BMP280;47622;47.726;3.298;2023-02-23T00:36:08;98771.59;;;8.11
61703;BMP280;47622;47.726;3.298;2023-02-23T00:38:35;98776.19;;;8.14
61703;BMP280;47622;47.726;3.298;2023-02-23T00:41:09;98777.00;;;8.14
61703;BMP280;47622;47.726;3.298;2023-02-23T00:43:40;98782.03;;;8.11
61703;BMP280;47622;47.726;3.298;2023-02-23T00:46:18;98772.66;;;8.10
61703;BMP280;47622;47.726;3.298;2023-02-23T00:48:46;98777.38;;;8.08
61703;BMP280;47622;47.726;3.298;2023-02-23T00:51:12;98771.28;;;8.12
61703;BMP280;47622;47.726;3.298;2023-02-23T00:53:39;98771.78;;;8.14
61703;BMP280;47622;47.726;3.298;2023-02-23T00:56:06;98769.84;;;8.20
61703;BMP280;47622;47.726;3.298;2023-02-23T00:58:31;98764.22;;;8.13
61703;BMP280;47622;47.726;3.298;2023-02-23T01:00:58;98767.25;;;8.20
61703;BMP280;47622;47.726;3.298;2023-02-23T01:03:29;98769.94;;;8.15
61703;BMP280;47622;47.726;3.298;2023-02-23T01:05:59;98768.47;;;8.09
61703;BMP280;47622;47.726;3.298;2023-02-23T01:08:25;98770.31;;;8.08
61703;BMP280;47622;47.726;3.298;2023-02-23T01:10:52;98771.88;;;8.09
61703;BMP280;47622;47.726;3.298;2023-02-23T01:13:22;98772.53;;;8.15
61703;BMP280;47622;47.726;3.298;2023-02-23T01:15:48;98775.63;;;8.17
61703;BMP280;47622;47.726;3.298;2023-02-23T01:18:18;98773.50;;;8.19
61703;BMP280;47622;47.726;3.298;2023-02-23T01:20:44;98770.22;;;8.13
61703;BMP280;47622;47.726;3.298;2023-02-23T01:23:12;98765.66;;;8.05
61703;BMP280;47622;47.726;3.298;2023-02-23T01:25:40;98768.47;;;8.09
61703;BMP280;47622;47.726;3.298;2023-02-23T01:28:08;98776.41;;;8.04
61703;BMP280;47622;47.726;3.298;2023-02-23T01:30:38;98770.03;;;8.10
61703;BMP280;47622;47.726;3.298;2023-02-23T01:33:04;98777.00;;;8.00
61703;BMP280;47622;47.726;3.298;2023-02-23T01:35:30;98770.59;;;7.93
61703;BMP280;47622;47.726;3.298;2023-02-23T01:37:57;98773.50;;;7.91
61703;BMP280;47622;47.726;3.298;2023-02-23T01:40:24;98775.63;;;7.89
61703;BMP280;47622;47.726;3.298;2023-02-23T01:42:56;98782.38;;;7.90
61703;BMP280;47622;47.726;3.298;2023-02-23T01:45:28;98779.97;;;7.94
61703;BMP280;47622;47.726;3.298;2023-02-23T01:47:58;98785.19;;;7.94
61703;BMP280;47622;47.726;3.298;2023-02-23T01:50:30;98776.78;;;7.97
61703;BMP280;47622;47.726;3.298;2023-02-23T01:52:57;98785.13;;;7.99
61703;BMP280;47622;47.726;3.298;2023-02-23T01:55:24;98782.22;;;8.00
61703;BMP280;47622;47.726;3.298;2023-02-23T01:57:59;98780.94;;;7.98
61703;BMP280;47622;47.726;3.298;2023-02-23T02:00:26;98773.91;;;7.98
61703;BMP280;47622;47.726;3.298;2023-02-23T02:02:53;98776.22;;;8.00
61703;BMP280;47622;47.726;3.298;2023-02-23T02:05:19;98775.63;;;7.89
61703;BMP280;47622;47.726;3.298;2023-02-23T02:07:47;98781.81;;;7.93
61703;BMP280;47622;47.726;3.298;2023-02-23T02:10:14;98783.34;;;7.94
61703;BMP280;47622;47.726;3.298;2023-02-23T02:12:44;98775.44;;;7.99
61703;BMP280;47622;47.726;3.298;2023-02-23T02:15:12;98775.59;;;8.03
61703;BMP280;47622;47.726;3.298;2023-02-23T02:26:12;98766.56;;;8.00
61703;BMP280;47622;47.726;3.298;2023-02-23T02:31:55;98760.16;;;8.07
61703;BMP280;47622;47.726;3.298;2023-02-23T02:37:30;98760.75;;;8.04
61703;BMP280;47622;47.726;3.298;2023-02-23T02:40:10;98763.47;;;7.98
61703;BMP280;47622;47.726;3.298;2023-02-23T02:43:04;98754.13;;;7.92
61703;BMP280;47622;47.726;3.298;2023-02-23T02:50:54;98747.69;;;8.04
61703;BMP280;47622;47.726;3.298;2023-02-23T02:53:40;98748.75;;;8.03
61703;BMP280;47622;47.726;3.298;2023-02-23T02:56:10;98753.38;;;8.06
61703;BMP280;47622;47.726;3.298;2023-02-23T02:58:37;98740.81;;;8.08
61703;BMP280;47622;47.726;3.298;2023-02-23T03:01:12;98737.72;;;8.06
61703;BMP280;47622;47.726;3.298;2023-02-23T03:03:58;98734.81;;;8.07
61703;BMP280;47622;47.726;3.298;2023-02-23T03:06:54;98744.50;;;8.07
61703;BMP280;47622;47.726;3.298;2023-02-23T03:09:48;98742.34;;;8.09
61703;BMP280;47622;47.726;3.298;2023-02-23T03:15:36;98738.13;;;8.13
61703;BMP280;47622;47.726;3.298;2023-02-23T03:18:37;98738.31;;;8.03
61703;BMP280;47622;47.726;3.298;2023-02-23T03:22:00;98725.34;;;7.97
61703;BMP280;47622;47.726;3.298;2023-02-23T03:28:11;98734.25;;;7.96
61703;BMP280;47622;47.726;3.298;2023-02-23T03:34:16;98737.91;;;7.95
61703;BMP280;47622;47.726;3.298;2023-02-23T03:37:22;98725.75;;;7.91
61703;BMP280;47622;47.726;3.298;2023-02-23T03:40:30;98739.84;;;7.90
61703;BMP280;47622;47.726;3.298;2023-02-23T03:43:19;98729.19;;;7.86
61703;BMP280;47622;47.726;3.298;2023-02-23T03:46:07;98734.03;;;7.79
61703;BMP280;47622;47.726;3.298;2023-02-23T03:48:53;98744.25;;;7.76
61703;BMP280;47622;47.726;3.298;2023-02-23T03:51:40;98739.81;;;7.76
61703;BMP280;47622;47.726;3.298;2023-02-23T03:54:33;98750.66;;;7.83
61703;BMP280;47622;47.726;3.298;2023-02-23T03:57:19;98734.63;;;7.90
61703;BMP280;47622;47.726;3.298;2023-02-23T04:00:07;98739.28;;;7.93
61703;BMP280;47622;47.726;3.298;2023-02-23T04:02:52;98747.38;;;7.91
61703;BMP280;47622;47.726;3.298;2023-02-23T04:05:38;98752.69;;;7.86
61703;BMP280;47622;47.726;3.298;2023-02-23T04:08:29;98752.97;;;7.85
61703;BMP280;47622;47.726;3.298;2023-02-23T04:11:36;98753.75;;;7.85
61703;BMP280;47622;47.726;3.298;2023-02-23T04:14:37;98760.53;;;7.86
61703;BMP280;47622;47.726;3.298;2023-02-23T04:17:05;98749.69;;;7.79
61703;BMP280;47622;47.726;3.298;2023-02-23T04:19:31;98751.72;;;7.82
61703;BMP280;47622;47.726;3.298;2023-02-23T04:21:57;98754.91;;;7.79
61703;BMP280;47622;47.726;3.298;2023-02-23T04:24:22;98750.66;;;7.83
61703;BMP280;47622;47.726;3.298;2023-02-23T04:26:48;98751.63;;;7.87
61703;BMP280;47622;47.726;3.298;2023-02-23T04:29:14;98758.78;;;7.95
61703;BMP280;47622;47.726;3.298;2023-02-23T04:31:40;98760.16;;;7.93
61703;BMP280;47622;47.726;3.298;2023-02-23T04:34:08;98750.47;;;7.93
61703;BMP280;47622;47.726;3.298;2023-02-23T04:36:34;98752.81;;;7.95
61703;BMP280;47622;47.726;3.298;2023-02-23T04:39:00;98761.09;;;7.97
61703;BMP280;47622;47.726;3.298;2023-02-23T04:41:26;98763.47;;;7.98
61703;BMP280;47622;47.726;3.298;2023-02-23T04:43:52;98750.13;;;8.00
61703;BMP280;47622;47.726;3.298;2023-02-23T04:46:17;98758.72;;;8.00
61703;BMP280;47622;47.726;3.298;2023-02-23T04:48:43;98759.94;;;8.03
61703;BMP280;47622;47.726;3.298;2023-02-23T04:51:08;98760.25;;;8.02
61703;BMP280;47622;47.726;3.298;2023-02-23T04:53:34;98768.69;;;7.98
61703;BMP280;47622;47.726;3.298;2023-02-23T04:56:00;98761.88;;;7.97
61703;BMP280;47622;47.726;3.298;2023-02-23T04:58:25;98761.31;;;8.00
61703;BMP280;47622;47.726;3.298;2023-02-23T05:00:51;98767.50;;;8.05
61703;BMP280;47622;47.726;3.298;2023-02-23T05:03:17;98760.75;;;8.04
61703;BMP280;47622;47.726;3.298;2023-02-23T05:05:42;98766.44;;;8.06
61703;BMP280;47622;47.726;3.298;2023-02-23T05:08:08;98759.38;;;8.06
61703;BMP280;47622;47.726;3.298;2023-02-23T05:10:35;98762.78;;;8.07
61703;BMP280;47622;47.726;3.298;2023-02-23T05:13:00;98758.03;;;8.09
61703;BMP280;47622;47.726;3.298;2023-02-23T05:15:26;98763.25;;;8.09
61703;BMP280;47622;47.726;3.298;2023-02-23T05:17:53;98766.38;;;8.11
61703;BMP280;47622;47.726;3.298;2023-02-23T05:20:19;98760.94;;;8.07
61703;BMP280;47622;47.726;3.298;2023-02-23T05:22:44;98757.06;;;8.05
61703;BMP280;47622;47.726;3.298;2023-02-23T05:25:10;98753.38;;;8.06
61703;BMP280;47622;47.726;3.298;2023-02-23T05:27:36;98762.28;;;8.05
61703;BMP280;47622;47.726;3.298;2023-02-23T05:30:03;98754.94;;;8.07
61703;BMP280;47622;47.726;3.298;2023-02-23T05:32:29;98753.38;;;8.06
61703;BMP280;47622;47.726;3.298;2023-02-23T05:34:55;98755.72;;;8.07
61703;BMP280;47622;47.726;3.298;2023-02-23T05:37:20;98755.91;;;8.11
61703;BMP280;47622;47.726;3.298;2023-02-23T05:39:46;98752.03;;;8.08
61703;BMP280;47622;47.726;3.298;2023-02-23T05:42:12;98763.47;;;8.12
61703;BMP280;47622;47.726;3.298;2023-02-23T05:44:37;98749.41;;;8.08
61703;BMP280;47622;47.726;3.298;2023-02-23T05:47:03;98762.69;;;8.12
61703;BMP280;47622;47.726;3.298;2023-02-23T05:49:29;98753.38;;;8.06
61703;BMP280;47622;47.726;3.298;2023-02-23T05:51:54;98766.56;;;8.00
61703;BMP280;47622;47.726;3.298;2023-02-23T05:54:20;98762.88;;;8.02
61703;BMP280;47622;47.726;3.298;2023-02-23T05:56:46;98758.25;;;7.98
61703;BMP280;47622;47.726;3.298;2023-02-23T05:59:12;98758.72;;;8.00
61703;BMP280;47622;47.726;3.298;2023-02-23T06:01:38;98758.13;;;8.04
61703;BMP280;47622;47.726;3.298;2023-02-23T06:04:04;98765.84;;;8.09
61703;BMP280;47622;47.726;3.298;2023-02-23T06:06:30;98758.03;;;8.09
61703;BMP280;47622;47.726;3.298;2023-02-23T06:08:55;98762.94;;;7.96
61703;BMP280;47622;47.726;3.298;2023-02-23T06:11:21;98767.78;;;7.89
61703;BMP280;47622;47.726;3.298;2023-02-23T06:13:47;98764.56;;;7.92
61703;BMP280;47622;47.726;3.298;2023-02-23T06:16:12;98772.91;;;7.94
61703;BMP280;47622;47.726;3.298;2023-02-23T06:18:38;98775.53;;;7.94
61703;BMP280;47622;47.726;3.298;2023-02-23T06:21:04;98773.69;;;7.95
61703;BMP280;47622;47.726;3.298;2023-02-23T06:23:30;98773.50;;;7.91
61703;BMP280;47622;47.726;3.298;2023-02-23T06:25:57;98768.28;;;7.91
61703;BMP280;47622;47.726;3.298;2023-02-23T06:28:24;98778.91;;;7.95
61703;BMP280;47622;47.726;3.298;2023-02-23T06:30:53;98784.69;;;7.92
61703;BMP280;47622;47.726;3.298;2023-02-23T06:33:19;98777.00;;;8.00
61703;BMP280;47622;47.726;3.298;2023-02-23T06:35:45;98777.53;;;7.97
61703;BMP280;47622;47.726;3.298;2023-02-23T06:38:11;98778.31;;;7.98
61703;BMP280;47622;47.726;3.298;2023-02-23T06:40:37;98781.44;;;8.00
61703;BMP280;47622;47.726;3.298;2023-02-23T06:43:03;98785.31;;;8.03
61703;BMP280;47622;47.726;3.298;2023-02-23T06:45:30;98786.94;;;7.98
61703;BMP280;47622;47.726;3.298;2023-02-23T06:47:57;98782.22;;;8.00
61703;BMP280;47622;47.726;3.298;2023-02-23T06:50:22;98780.09;;;8.03
61703;BMP280;47622;47.726;3.298;2023-02-23T06:52:48;98784.72;;;8.06
61703;BMP280;47622;47.726;3.298;2023-02-23T06:55:14;98795.16;;;8.06
61703;BMP280;47622;47.726;3.298;2023-02-23T06:57:40;98797.88;;;8.00
61703;BMP280;47622;47.726;3.298;2023-02-23T07:00:06;98800.97;;;8.03
61703;BMP280;47622;47.726;3.298;2023-02-23T07:02:32;98805.13;;;8.04
61703;BMP280;47622;47.726;3.298;2023-02-23T07:04:59;98802.50;;;8.04
61703;BMP280;47622;47.726;3.298;2023-02-23T07:07:25;98793.03;;;8.08
61703;BMP280;47622;47.726;3.298;2023-02-23T07:09:50;98800.78;;;8.13
61703;BMP280;47622;47.726;3.298;2023-02-23T07:12:16;98798.66;;;8.15
61703;BMP280;47622;47.726;3.298;2023-02-23T07:14:41;98803.88;;;8.15
61703;BMP280;47622;47.726;3.298;2023-02-23T07:17:07;98805.44;;;8.16
61703;BMP280;47622;47.726;3.298;2023-02-23T07:19:32;98811.13;;;8.18
61703;BMP280;47622;47.726;3.298;2023-02-23T07:21:58;98816.75;;;8.25
61703;BMP280;47622;47.726;3.298;2023-02-23T07:24:24;98812.56;;;8.24
61703;BMP280;47622;47.726;3.298;2023-02-23T07:26:50;98817.22;;;8.27
61703;BMP280;47622;47.726;3.298;2023-02-23T07:29:16;98813.00;;;8.31
61703;BMP280;47622;47.726;3.298;2023-02-23T07:31:42;98816.66;;;8.30
61703;BMP280;47622;47.726;3.298;2023-02-23T07:34:08;98816.88;;;8.34
61703;BMP280;47622;47.726;3.298;2023-02-23T07:36:34;98819.38;;;8.39
61703;BMP280;47622;47.726;3.298;2023-02-23T07:39:01;98823.25;;;8.41
61703;BMP280;47622;47.726;3.298;2023-02-23T07:41:27;98818.22;;;8.45
61703;BMP280;47622;47.726;3.298;2023-02-23T07:43:53;98824.00;;;8.55
61703;BMP280;47622;47.726;3.298;2023-02-23T07:46:18;98821.31;;;8.61
61703;BMP280;47622;47.726;3.298;2023-02-23T07:48:44;98821.31;;;8.61
61703;BMP280;47622;47.726;3.298;2023-02-23T07:51:11;98824.50;;;8.71
61703;BMP280;47622;47.726;3.298;2023-02-23T07:53:38;98823.72;;;8.71
61703;BMP280;47622;47.726;3.298;2023-02-23T07:56:04;98830.59;;;8.80
61703;BMP280;47622;47.726;3.298;2023-02-23T07:58:30;98821.47;;;8.78
61703;BMP280;47622;47.726;3.298;2023-02-23T08:00:56;98820.88;;;8.67
61703;BMP280;47622;47.726;3.298;2023-02-23T08:03:22;98823.41;;;8.72
61703;BMP280;47622;47.726;3.298;2023-02-23T08:05:48;98822.25;;;8.78
61703;BMP280;47622;47.726;3.298;2023-02-23T08:08:13;98820.53;;;8.74
61703;BMP280;47622;47.726;3.298;2023-02-23T08:10:39;98823.59;;;8.76
61703;BMP280;47622;47.726;3.298;2023-02-23T08:13:05;98824.00;;;8.83
61703;BMP280;47622;47.726;3.298;2023-02-23T08:15:30;98823.19;;;8.96
61703;BMP280;47622;47.726;3.298;2023-02-23T08:17:56;98824.16;;;9.00
61703;BMP280;47622;47.726;3.298;2023-02-23T08:20:23;98820.56;;;8.96
61703;BMP280;47622;47.726;3.298;2023-02-23T08:22:53;98825.81;;;8.96
61703;BMP280;47622;47.726;3.298;2023-02-23T08:25:19;98822.41;;;8.96
61703;BMP280;47622;47.726;3.298;2023-02-23T08:27:45;98819.63;;;8.92
61703;BMP280;47622;47.726;3.298;2023-02-23T08:30:11;98827.97;;;8.94
61703;BMP280;47622;47.726;3.298;2023-02-23T08:32:38;98824.72;;;8.97
61703;BMP280;47622;47.726;3.298;2023-02-23T08:35:04;98819.59;;;9.06
61703;BMP280;47622;47.726;3.298;2023-02-23T08:37:31;98827.81;;;9.13
61703;BMP280;47622;47.726;3.298;2023-02-23T08:39:56;98828.16;;;9.20
61703;BMP280;47622;47.726;3.298;2023-02-23T08:42:23;98829.88;;;9.25
61703;BMP280;47622;47.726;3.298;2023-02-23T08:44:49;98826.59;;;9.33
61703;BMP280;47622;47.726;3.298;2023-02-23T08:47:15;98829.78;;;9.52
61703;BMP280;47622;47.726;3.298;2023-02-23T08:49:42;98835.41;;;9.59
61703;BMP280;47622;47.726;3.298;2023-02-23T08:52:07;98833.50;;;9.51
61703;BMP280;47622;47.726;3.298;2023-02-23T08:54:33;98840.25;;;9.52
61703;BMP280;47622;47.726;3.298;2023-02-23T08:56:58;98835.94;;;9.48
61703;BMP280;47622;47.726;3.298;2023-02-23T08:59:24;98842.03;;;9.43
61703;BMP280;47622;47.726;3.298;2023-02-23T09:01:51;98845.75;;;9.42
61703;BMP280;47622;47.726;3.298;2023-02-23T09:04:17;98842.63;;;9.40
61703;BMP280;47622;47.726;3.298;2023-02-23T09:06:43;98837.38;;;9.17
61703;BMP280;47622;47.726;3.298;2023-02-23T09:09:11;98835.25;;;9.20
61703;BMP280;47622;47.726;3.298;2023-02-23T09:11:36;98840.44;;;9.33
61703;BMP280;47622;47.726;3.298;2023-02-23T09:14:02;98837.41;;;9.40
61703;BMP280;47622;47.726;3.298;2023-02-23T09:16:28;98838.72;;;9.51
61703;BMP280;47622;47.726;3.298;2023-02-23T09:18:53;98837.06;;;9.55
61703;BMP280;47622;47.726;3.298;2023-02-23T09:21:20;98840.38;;;9.69
61703;BMP280;47622;47.726;3.298;2023-02-23T09:23:50;98834.66;;;9.67
61703;BMP280;47622;47.726;3.298;2023-02-23T09:26:18;98839.78;;;9.72
61703;BMP280;47622;47.726;3.298;2023-02-23T09:28:44;98842.41;;;9.95
61703;BMP280;47622;47.726;3.298;2023-02-23T09:31:13;98829.41;;;9.90
61703;BMP280;47622;47.726;3.298;2023-02-23T09:33:39;98838.44;;;10.06
61703;BMP280;47622;47.726;3.298;2023-02-23T09:36:10;98842.81;;;10.19
61703;BMP280;47622;47.726;3.298;2023-02-23T09:38:38;98844.69;;;10.27
61703;BMP280;47622;47.726;3.298;2023-02-23T09:41:45;98844.47;;;10.15
61703;BMP280;47622;47.726;3.298;2023-02-23T09:44:23;98843.25;;;10.21
61703;BMP280;47622;47.726;3.298;2023-02-23T09:49:26;98835.56;;;10.25
61703;BMP280;47622;47.726;3.298;2023-02-23T09:51:55;98850.84;;;10.31
61703;BMP280;47622;47.726;3.298;2023-02-23T09:54:26;98836.59;;;10.15
61703;BMP280;47622;47.726;3.298;2023-02-23T09:56:53;98843.25;;;10.21
61703;BMP280;47622;47.726;3.298;2023-02-23T09:59:23;98831.72;;;10.22
61703;BMP280;47622;47.726;3.298;2023-02-23T10:02:35;98844.81;;;10.31
61703;BMP280;47622;47.726;3.298;2023-02-23T10:05:08;98837.88;;;10.26
61703;BMP280;47622;47.726;3.298;2023-02-23T10:07:49;98836.69;;;10.32
61703;BMP280;47622;47.726;3.298;2023-02-23T10:10:39;98837.69;;;10.54
61703;BMP280;47622;47.726;3.298;2023-02-23T10:15:56;98835.88;;;10.32
61703;BMP280;47622;47.726;3.298;2023-02-23T10:21:20;98840.31;;;10.62
61703;BMP280;47622;47.726;3.298;2023-02-23T10:24:09;98846.94;;;10.60
61703;BMP280;47622;47.726;3.298;2023-02-23T10:26:53;98842.81;;;10.85
61703;BMP280;47622;47.726;3.298;2023-02-23T10:29:48;98838.81;;;11.05
61703;BMP280;47622;47.726;3.298;2023-02-23T10:32:24;98832.47;;;11.06
61703;BMP280;47622;47.726;3.298;2023-02-23T10:34:54;98848.56;;;11.13
61703;BMP280;47622;47.726;3.298;2023-02-23T10:37:21;98841.75;;;11.29
61703;BMP280;47622;47.726;3.298;2023-02-23T10:39:48;98846.22;;;11.20
61703;BMP280;47622;47.726;3.298;2023-02-23T10:42:23;98850.38;;;11.04
61703;BMP280;47622;47.726;3.298;2023-02-23T10:44:53;98843.28;;;10.78
61703;BMP280;47622;47.726;3.298;2023-02-23T10:47:25;98832.31;;;10.76
61703;BMP280;47622;47.726;3.298;2023-02-23T10:49:53;98838.66;;;10.75
61703;BMP280;47622;47.726;3.298;2023-02-23T10:52:25;98836.50;;;10.94
61703;BMP280;47622;47.726;3.298;2023-02-23T10:54:52;98839.31;;;11.07
61703;BMP280;47622;47.726;3.298;2023-02-23T10:57:20;98835.13;;;11.14
61703;BMP280;47622;47.726;3.298;2023-02-23T11:00:10;98835.88;;;10.80
61703;BMP280;47622;47.726;3.298;2023-02-23T11:02:52;98842.84;;;10.93
61703;BMP280;47622;47.726;3.298;2023-02-23T11:05:42;98841.44;;;10.70
61703;BMP280;47622;47.726;3.298;2023-02-23T11:08:23;98834.47;;;10.65
61703;BMP280;47622;47.726;3.298;2023-02-23T11:13:49;98833.25;;;11.06
61703;BMP280;47622;47.726;3.298;2023-02-23T11:16:30;98840.22;;;11.11
61703;BMP280;47622;47.726;3.298;2023-02-23T11:19:03;98837.28;;;11.21
61703;BMP280;47622;47.726;3.298;2023-02-23T11:21:33;98835.09;;;11.06
61703;BMP280;47622;47.726;3.298;2023-02-23T11:24:31;98829.72;;;11.28
61703;BMP280;47622;47.726;3.298;2023-02-23T11:27:00;98829.53;;;10.90
61703;BMP280;47622;47.726;3.298;2023-02-23T11:29:42;98830.31;;;10.90
61703;BMP280;47622;47.726;3.298;2023-02-23T11:32:14;98829.41;;;10.78
61703;BMP280;47622;47.726;3.298;2023-02-23T11:34:41;98827.69;;;10.82
61703;BMP280;47622;47.726;3.298;2023-02-23T11:39:58;98826.78;;;10.95
61703;BMP280;47622;47.726;3.298;2023-02-23T11:42:27;98829.09;;;10.96
61703;BMP280;47622;47.726;3.298;2023-02-23T11:47:32;98826.78;;;10.78
61703;BMP280;47622;47.726;3.298;2023-02-23T11:49:59;98822.91;;;10.75
61703;BMP280;47622;47.726;3.298;2023-02-23T11:52:26;98824.19;;;10.86
61703;BMP280;47622;47.726;3.298;2023-02-23T11:54:58;98819.53;;;10.83
61703;BMP280;47622;47.726;3.298;2023-02-23T11:57:28;98821.00;;;10.58
61703;BMP280;47622;47.726;3.298;2023-02-23T11:59:56;98818.66;;;10.40
61703;BMP280;47622;47.726;3.298;2023-02-23T12:02:25;98815.09;;;10.35
61703;BMP280;47622;47.726;3.298;2023-02-23T12:05:19;98813.00;;;10.06
61703;BMP280;47622;47.726;3.298;2023-02-23T12:10:36;98808.84;;;10.54
61703;BMP280;47622;47.726;3.298;2023-02-23T12:18:58;98814.28;;;10.83
61703;BMP280;47622;47.726;3.298;2023-02-23T12:21:42;98806.06;;;10.50
61703;BMP280;47622;47.726;3.298;2023-02-23T12:27:00;98810.84;;;10.57
61703;BMP280;47622;47.726;3.298;2023-02-23T12:29:36;98801.75;;;10.63
61703;BMP280;47622;47.726;3.298;2023-02-23T12:32:13;98797.91;;;10.69
61703;BMP280;47622;47.726;3.298;2023-02-23T12:40:14;98797.09;;;10.51
61703;BMP280;47622;47.726;3.298;2023-02-23T12:43:24;98798.22;;;10.59
61703;BMP280;47622;47.726;3.298;2023-02-23T12:45:49;98795.78;;;10.71
61703;BMP280;47622;47.726;3.298;2023-02-23T12:51:20;98790.97;;;10.82
61703;BMP280;47622;47.726;3.298;2023-02-23T12:53:47;98799.63;;;10.91
61703;BMP280;47622;47.726;3.298;2023-02-23T12:59:08;98790.84;;;10.95
61703;BMP280;47622;47.726;3.298;2023-02-23T13:07:21;98780.78;;;10.63
61703;BMP280;47622;47.726;3.298;2023-02-23T13:10:00;98784.94;;;10.73
61703;BMP280;47622;47.726;3.298;2023-02-23T13:12:34;98783.06;;;10.56
61703;BMP280;47622;47.726;3.298;2023-02-23T13:15:40;98780.03;;;10.54
61703;BMP280;47622;47.726;3.298;2023-02-23T13:21:10;98777.19;;;10.42
61703;BMP280;47622;47.726;3.298;2023-02-23T13:24:06;98783.66;;;10.35
61703;BMP280;47622;47.726;3.298;2023-02-23T13:31:45;98763.88;;;10.12
61703;BMP280;47622;47.726;3.298;2023-02-23T13:34:15;98766.63;;;10.16
61703;BMP280;47622;47.726;3.298;2023-02-23T13:36:46;98771.75;;;10.21
61703;BMP280;47622;47.726;3.298;2023-02-23T13:39:42;98768.88;;;10.40
61703;BMP280;47622;47.726;3.298;2023-02-23T13:47:35;98756.88;;;10.73
61703;BMP280;47622;47.726;3.298;2023-02-23T13:52:38;98759.94;;;10.58
61703;BMP280;47622;47.726;3.298;2023-02-23T13:57:50;98756.22;;;10.42
61703;BMP280;47622;47.726;3.298;2023-02-23T14:00:20;98755.91;;;10.34
61703;BMP280;47622;47.726;3.298;2023-02-23T14:02:47;98745.47;;;10.43
61703;BMP280;47622;47.726;3.298;2023-02-23T14:07:43;98743.00;;;10.47
61703;BMP280;47622;47.726;3.298;2023-02-23T14:10:24;98748.09;;;10.43
61703;BMP280;47622;47.726;3.298;2023-02-23T14:25:48;98757.31;;;10.49
61703;BMP280;47622;47.726;3.298;2023-02-23T14:41:23;98753.16;;;10.48
61703;BMP280;47622;47.726;3.298;2023-02-23T14:43:57;98751.16;;;10.45
61703;BMP280;47622;47.726;3.298;2023-02-23T14:46:25;98752.84;;;10.32
61703;BMP280;47622;47.726;3.298;2023-02-23T14:51:35;98745.28;;;10.40
61703;BMP280;47622;47.726;3.298;2023-02-23T14:54:11;98733.25;;;10.39
61703;BMP280;47622;47.726;3.298;2023-02-23T14:56:51;98738.03;;;10.36
61703;BMP280;47622;47.726;3.298;2023-02-23T14:59:21;98739.75;;;10.50
61703;BMP280;47622;47.726;3.298;2023-02-23T15:01:50;98743.78;;;10.64
61703;BMP280;47622;47.726;3.298;2023-02-23T15:04:23;98734.34;;;10.72
61703;BMP280;47622;47.726;3.298;2023-02-23T15:06:53;98726.34;;;10.60
61703;BMP280;47622;47.726;3.298;2023-02-23T15:09:34;98737.13;;;10.67
61703;BMP280;47622;47.726;3.298;2023-02-23T15:12:10;98736.53;;;10.70
61703;BMP280;47622;47.726;3.298;2023-02-23T15:14:36;98722.66;;;10.70
61703;BMP280;47622;47.726;3.298;2023-02-23T15:17:03;98731.88;;;10.50
61703;BMP280;47622;47.726;3.298;2023-02-23T15:19:32;98737.44;;;10.57
61703;BMP280;47622;47.726;3.298;2023-02-23T15:22:00;98731.28;;;10.53
61703;BMP280;47622;47.726;3.298;2023-02-23T15:24:43;98739.63;;;10.55
61703;BMP280;47622;47.726;3.298;2023-02-23T15:27:21;98732.84;;;10.54
61703;BMP280;47622;47.726;3.298;2023-02-23T15:29:48;98743.44;;;10.49
61703;BMP280;47622;47.726;3.298;2023-02-23T15:32:20;98728.97;;;10.51
61703;BMP280;47622;47.726;3.298;2023-02-23T15:34:46;98733.72;;;10.41
61703;BMP280;47622;47.726;3.298;2023-02-23T15:37:37;98741.88;;;10.48
61703;BMP280;47622;47.726;3.298;2023-02-23T15:40:06;98735.13;;;10.47
61703;BMP280;47622;47.726;3.298;2023-02-23T15:42:38;98738.50;;;10.47
61703;BMP280;47622;47.726;3.298;2023-02-23T15:48:05;98733.84;;;10.18
61703;BMP280;47622;47.726;3.298;2023-02-23T15:50:41;98730.75;;;10.16
61703;BMP280;47622;47.726;3.298;2023-02-23T15:53:16;98728.75;;;10.13
61703;BMP280;47622;47.726;3.298;2023-02-23T15:55:46;98721.34;;;10.15
61703;BMP280;47622;47.726;3.298;2023-02-23T15:58:20;98724.59;;;10.21
61703;BMP280;47622;47.726;3.298;2023-02-23T16:00:58;98720.44;;;10.11
61703;BMP280;47622;47.726;3.298;2023-02-23T16:03:31;98724.09;;;10.10
61703;BMP280;47622;47.726;3.298;2023-02-23T16:08:25;98727.50;;;10.02
61703;BMP280;47622;47.726;3.298;2023-02-23T16:10:59;98727.19;;;9.95
61703;BMP280;47622;47.726;3.298;2023-02-23T16:13:26;98721.56;;;9.88
61703;BMP280;47622;47.726;3.298;2023-02-23T16:15:53;98720.81;;;9.87
61703;BMP280;47622;47.726;3.298;2023-02-23T16:18:49;98720.66;;;9.92
61703;BMP280;47622;47.726;3.298;2023-02-23T16:21:19;98728.03;;;9.82
61703;BMP280;47622;47.726;3.298;2023-02-23T16:23:48;98724.03;;;9.84
61703;BMP280;47622;47.726;3.298;2023-02-23T16:26:30;98716.69;;;9.95
61703;BMP280;47622;47.726;3.298;2023-02-23T16:29:00;98709.22;;;9.80
61703;BMP280;47622;47.726;3.298;2023-02-23T16:31:43;98714.63;;;9.83
61703;BMP280;47622;47.726;3.298;2023-02-23T16:34:23;98705.69;;;9.75
61703;BMP280;47622;47.726;3.298;2023-02-23T16:36:54;98717.81;;;9.71
61703;BMP280;47622;47.726;3.298;2023-02-23T16:39:20;98709.13;;;9.62
61703;BMP280;47622;47.726;3.298;2023-02-23T16:41:49;98702.56;;;9.65
61703;BMP280;47622;47.726;3.298;2023-02-23T16:44:19;98701.78;;;9.64
61703;BMP280;47622;47.726;3.298;2023-02-23T16:46:55;98703.19;;;9.70
61703;BMP280;47622;47.726;3.298;2023-02-23T16:49:21;98707.59;;;9.61
61703;BMP280;47622;47.726;3.298;2023-02-23T16:51:48;98703.00;;;9.58